sensor_id;sensor_type;location;lat;lon;timestamp;temperature;humidity
18932;DHT22;9598;50.954;3.112;2023-12-20T00:01:44;8.50;99.90
18932;DHT22;9598;50.954;3.112;2023-12-20T00:06:46;8.50;99.90
18932;DHT22;9598;50.954;3.112;2023-12-20T00:11:49;8.50;99.90
18932;DHT22;9598;50.954;3.112;2023-12-20T00:16:52;8.50;99.90
18932;DHT22;9598;50.954;3.112;2023-12-20T00:21:54;8.50;99.90
18932;DHT22;9598;50.954;3.112;2023-12-20T00:26:57;8.50;99.90
18932;DHT22;9598;50.954;3.112;2023-12-20T00:31:59;8.50;99.90
18932;DHT22;9598;50.954;3.112;2023-12-20T00:37:01;8.50;99.90
18932;DHT22;9598;50.954;3.112;2023-12-20T00:42:05;8.50;99.90
18932;DHT22;9598;50.954;3.112;2023-12-20T00:47:07;8.40;99.90
18932;DHT22;9598;50.954;3.112;2023-12-20T00:52:09;8.40;99.90
18932;DHT22;9598;50.954;3.112;2023-12-20T00:57:13;8.30;99.90
18932;DHT22;9598;50.954;3.112;2023-12-20T01:02:15;8.30;99.90
18932;DHT22;9598;50.954;3.112;2023-12-20T01:07:17;8.30;99.90
18932;DHT22;9598;50.954;3.112;2023-12-20T01:12:20;8.20;99.90
18932;DHT22;9598;50.954;3.112;2023-12-20T01:17:22;8.20;99.90
18932;DHT22;9598;50.954;3.112;2023-12-20T01:22:24;8.10;99.90
18932;DHT22;9598;50.954;3.112;2023-12-20T01:27:28;8.10;99.90
18932;DHT22;9598;50.954;3.112;2023-12-20T01:32:31;8.00;99.90
18932;DHT22;9598;50.954;3.112;2023-12-20T01:37:33;8.00;99.90
18932;DHT22;9598;50.954;3.112;2023-12-20T01:42:37;7.90;99.90
18932;DHT22;9598;50.954;3.112;2023-12-20T01:47:39;7.90;99.90
18932;DHT22;9598;50.954;3.112;2023-12-20T01:52:42;7.80;99.90
18932;DHT22;9598;50.954;3.112;2023-12-20T01:57:46;7.70;99.90
18932;DHT22;9598;50.954;3.112;2023-12-20T02:02:50;7.70;99.90
18932;DHT22;9598;50.954;3.112;2023-12-20T02:07:54;7.70;99.90
18932;DHT22;9598;50.954;3.112;2023-12-20T02:12:58;7.70;99.90
18932;DHT22;9598;50.954;3.112;2023-12-20T02:18:00;7.70;99.90
18932;DHT22;9598;50.954;3.112;2023-12-20T02:23:04;7.70;99.90
18932;DHT22;9598;50.954;3.112;2023-12-20T02:28:06;7.60;99.90
18932;DHT22;9598;50.954;3.112;2023-12-20T02:33:10;7.60;99.90
18932;DHT22;9598;50.954;3.112;2023-12-20T02:38:15;7.50;99.90
18932;DHT22;9598;50.954;3.112;2023-12-20T02:43:17;7.50;99.90
18932;DHT22;9598;50.954;3.112;2023-12-20T02:48:19;7.50;99.90
18932;DHT22;9598;50.954;3.112;2023-12-20T02:53:23;7.50;99.90
18932;DHT22;9598;50.954;3.112;2023-12-20T02:58:25;7.50;99.90
18932;DHT22;9598;50.954;3.112;2023-12-20T03:03:27;7.50;99.90
18932;DHT22;9598;50.954;3.112;2023-12-20T03:08:30;7.50;99.90
18932;DHT22;9598;50.954;3.112;2023-12-20T03:13:32;7.40;99.90
18932;DHT22;9598;50.954;3.112;2023-12-20T03:18:35;7.40;99.90
18932;DHT22;9598;50.954;3.112;2023-12-20T03:23:38;7.30;99.90
18932;DHT22;9598;50.954;3.112;2023-12-20T03:28:40;7.30;99.90
18932;DHT22;9598;50.954;3.112;2023-12-20T03:33:43;7.30;99.90
18932;DHT22;9598;50.954;3.112;2023-12-20T03:38:46;7.30;99.90
18932;DHT22;9598;50.954;3.112;2023-12-20T03:43:48;7.30;99.90
18932;DHT22;9598;50.954;3.112;2023-12-20T03:48:50;7.30;99.90
18932;DHT22;9598;50.954;3.112;2023-12-20T03:53:53;7.20;99.90
18932;DHT22;9598;50.954;3.112;2023-12-20T03:58:55;7.20;99.90
18932;DHT22;9598;50.954;3.112;2023-12-20T04:03:57;7.20;99.90
18932;DHT22;9598;50.954;3.112;2023-12-20T04:09:01;7.10;99.90
18932;DHT22;9598;50.954;3.112;2023-12-20T04:14:03;7.20;99.90
18932;DHT22;9598;50.954;3.112;2023-12-20T04:19:06;7.20;99.90
18932;DHT22;9598;50.954;3.112;2023-12-20T04:24:09;7.10;99.90
18932;DHT22;9598;50.954;3.112;2023-12-20T04:29:11;7.10;99.90
18932;DHT22;9598;50.954;3.112;2023-12-20T04:34:13;7.10;99.90
18932;DHT22;9598;50.954;3.112;2023-12-20T04:39:17;7.10;99.90
18932;DHT22;9598;50.954;3.112;2023-12-20T04:44:19;7.10;99.90
18932;DHT22;9598;50.954;3.112;2023-12-20T04:49:21;7.10;99.90
18932;DHT22;9598;50.954;3.112;2023-12-20T04:54:24;7.00;99.90
18932;DHT22;9598;50.954;3.112;2023-12-20T04:59:26;7.10;99.90
18932;DHT22;9598;50.954;3.112;2023-12-20T05:04:28;7.00;99.90
18932;DHT22;9598;50.954;3.112;2023-12-20T05:09:32;7.00;99.90
18932;DHT22;9598;50.954;3.112;2023-12-20T05:14:34;7.00;99.90
18932;DHT22;9598;50.954;3.112;2023-12-20T05:19:36;7.00;99.90
18932;DHT22;9598;50.954;3.112;2023-12-20T05:24:40;6.90;99.90
18932;DHT22;9598;50.954;3.112;2023-12-20T05:29:42;6.90;99.90
18932;DHT22;9598;50.954;3.112;2023-12-20T05:34:44;6.90;99.90
18932;DHT22;9598;50.954;3.112;2023-12-20T05:39:47;7.00;99.90
18932;DHT22;9598;50.954;3.112;2023-12-20T05:44:50;7.00;99.90
18932;DHT22;9598;50.954;3.112;2023-12-20T05:49:52;6.90;99.90
18932;DHT22;9598;50.954;3.112;2023-12-20T05:54:56;6.90;99.90
18932;DHT22;9598;50.954;3.112;2023-12-20T05:59:58;6.90;99.90
18932;DHT22;9598;50.954;3.112;2023-12-20T06:05:00;6.90;99.90
18932;DHT22;9598;50.954;3.112;2023-12-20T06:10:05;6.90;99.90
18932;DHT22;9598;50.954;3.112;2023-12-20T06:15:08;6.90;99.90
18932;DHT22;9598;50.954;3.112;2023-12-20T06:20:11;6.90;99.90
18932;DHT22;9598;50.954;3.112;2023-12-20T06:25:15;6.90;99.90
18932;DHT22;9598;50.954;3.112;2023-12-20T06:30:17;7.00;99.90
18932;DHT22;9598;50.954;3.112;2023-12-20T06:35:19;6.90;99.90
18932;DHT22;9598;50.954;3.112;2023-12-20T06:40:23;6.90;99.90
18932;DHT22;9598;50.954;3.112;2023-12-20T06:45:25;6.90;99.90
18932;DHT22;9598;50.954;3.112;2023-12-20T06:50:27;6.90;99.90
18932;DHT22;9598;50.954;3.112;2023-12-20T06:55:30;6.90;99.90
18932;DHT22;9598;50.954;3.112;2023-12-20T07:00:32;6.90;99.90
18932;DHT22;9598;50.954;3.112;2023-12-20T07:05:35;6.90;99.90
18932;DHT22;9598;50.954;3.112;2023-12-20T07:10:38;6.90;99.90
18932;DHT22;9598;50.954;3.112;2023-12-20T07:15:40;6.90;99.90
18932;DHT22;9598;50.954;3.112;2023-12-20T07:20:43;6.90;99.90
18932;DHT22;9598;50.954;3.112;2023-12-20T07:25:46;6.90;99.90
18932;DHT22;9598;50.954;3.112;2023-12-20T07:30:48;6.90;99.90
18932;DHT22;9598;50.954;3.112;2023-12-20T07:35:50;6.90;99.90
18932;DHT22;9598;50.954;3.112;2023-12-20T07:40:54;6.90;99.90
18932;DHT22;9598;50.954;3.112;2023-12-20T07:45:56;6.90;99.90
18932;DHT22;9598;50.954;3.112;2023-12-20T07:50:58;6.90;99.90
18932;DHT22;9598;50.954;3.112;2023-12-20T07:56:02;6.90;99.90
18932;DHT22;9598;50.954;3.112;2023-12-20T08:01:04;6.80;99.90
18932;DHT22;9598;50.954;3.112;2023-12-20T08:06:06;6.80;99.90
18932;DHT22;9598;50.954;3.112;2023-12-20T08:11:10;6.80;99.90
18932;DHT22;9598;50.954;3.112;2023-12-20T08:16:12;6.90;99.90
18932;DHT22;9598;50.954;3.112;2023-12-20T08:21:16;6.90;99.90
18932;DHT22;9598;50.954;3.112;2023-12-20T08:26:22;7.00;99.90
18932;DHT22;9598;50.954;3.112;2023-12-20T08:31:25;7.00;99.90
18932;DHT22;9598;50.954;3.112;2023-12-20T08:36:27;7.10;99.90
18932;DHT22;9598;50.954;3.112;2023-12-20T08:41:30;7.10;99.90
18932;DHT22;9598;50.954;3.112;2023-12-20T08:46:32;7.10;99.90
18932;DHT22;9598;50.954;3.112;2023-12-20T08:51:34;7.20;99.90
18932;DHT22;9598;50.954;3.112;2023-12-20T08:56:38;7.30;99.90
18932;DHT22;9598;50.954;3.112;2023-12-20T09:01:40;7.30;99.90
18932;DHT22;9598;50.954;3.112;2023-12-20T09:06:42;7.40;99.90
18932;DHT22;9598;50.954;3.112;2023-12-20T09:11:47;7.40;99.90
18932;DHT22;9598;50.954;3.112;2023-12-20T09:16:52;7.40;99.90
18932;DHT22;9598;50.954;3.112;2023-12-20T09:21:56;7.50;99.90
18932;DHT22;9598;50.954;3.112;2023-12-20T09:27:00;7.60;99.90
18932;DHT22;9598;50.954;3.112;2023-12-20T09:32:02;7.60;99.90
18932;DHT22;9598;50.954;3.112;2023-12-20T09:37:04;7.70;99.90
18932;DHT22;9598;50.954;3.112;2023-12-20T09:42:11;7.80;99.90
18932;DHT22;9598;50.954;3.112;2023-12-20T09:47:20;7.90;99.90
18932;DHT22;9598;50.954;3.112;2023-12-20T09:52:24;8.00;99.90
18932;DHT22;9598;50.954;3.112;2023-12-20T09:57:28;8.10;99.90
18932;DHT22;9598;50.954;3.112;2023-12-20T10:02:31;8.20;99.90
18932;DHT22;9598;50.954;3.112;2023-12-20T10:07:35;8.30;99.90
18932;DHT22;9598;50.954;3.112;2023-12-20T10:12:38;8.30;99.90
18932;DHT22;9598;50.954;3.112;2023-12-20T10:17:40;8.40;99.90
18932;DHT22;9598;50.954;3.112;2023-12-20T10:22:42;8.50;99.90
18932;DHT22;9598;50.954;3.112;2023-12-20T10:27:46;8.60;99.90
18932;DHT22;9598;50.954;3.112;2023-12-20T10:32:48;8.70;99.90
18932;DHT22;9598;50.954;3.112;2023-12-20T10:37:51;8.80;99.90
18932;DHT22;9598;50.954;3.112;2023-12-20T10:42:58;8.80;99.90
18932;DHT22;9598;50.954;3.112;2023-12-20T10:48:02;8.90;99.90
18932;DHT22;9598;50.954;3.112;2023-12-20T10:53:04;8.90;99.90
18932;DHT22;9598;50.954;3.112;2023-12-20T10:58:09;9.00;99.90
18932;DHT22;9598;50.954;3.112;2023-12-20T11:03:12;9.00;99.90
18932;DHT22;9598;50.954;3.112;2023-12-20T11:08:19;9.00;99.90
18932;DHT22;9598;50.954;3.112;2023-12-20T11:13:30;9.00;99.90
18932;DHT22;9598;50.954;3.112;2023-12-20T11:18:33;9.10;99.90
18932;DHT22;9598;50.954;3.112;2023-12-20T11:23:35;9.10;99.90
18932;DHT22;9598;50.954;3.112;2023-12-20T11:28:39;9.20;99.90
18932;DHT22;9598;50.954;3.112;2023-12-20T11:33:41;9.20;99.90
18932;DHT22;9598;50.954;3.112;2023-12-20T11:38:57;9.30;99.90
18932;DHT22;9598;50.954;3.112;2023-12-20T11:44:01;9.30;99.90
18932;DHT22;9598;50.954;3.112;2023-12-20T11:49:06;9.40;99.90
18932;DHT22;9598;50.954;3.112;2023-12-20T11:54:08;9.50;99.90
18932;DHT22;9598;50.954;3.112;2023-12-20T11:59:13;9.60;99.90
18932;DHT22;9598;50.954;3.112;2023-12-20T12:04:15;9.60;99.90
18932;DHT22;9598;50.954;3.112;2023-12-20T12:09:18;9.60;99.90
18932;DHT22;9598;50.954;3.112;2023-12-20T12:14:22;9.70;99.90
18932;DHT22;9598;50.954;3.112;2023-12-20T12:19:25;9.80;99.90
18932;DHT22;9598;50.954;3.112;2023-12-20T12:24:27;9.80;99.90
18932;DHT22;9598;50.954;3.112;2023-12-20T12:29:31;9.80;99.90
18932;DHT22;9598;50.954;3.112;2023-12-20T12:34:33;9.80;99.90
18932;DHT22;9598;50.954;3.112;2023-12-20T12:39:35;9.80;99.90
18932;DHT22;9598;50.954;3.112;2023-12-20T12:44:39;9.90;99.90
18932;DHT22;9598;50.954;3.112;2023-12-20T12:49:41;10.00;99.90
18932;DHT22;9598;50.954;3.112;2023-12-20T12:54:43;10.10;99.90
18932;DHT22;9598;50.954;3.112;2023-12-20T12:59:47;10.10;99.90
18932;DHT22;9598;50.954;3.112;2023-12-20T13:04:49;10.20;99.90
18932;DHT22;9598;50.954;3.112;2023-12-20T13:09:51;10.20;99.90
18932;DHT22;9598;50.954;3.112;2023-12-20T13:14:54;10.30;99.90
18932;DHT22;9598;50.954;3.112;2023-12-20T13:19:56;10.30;99.90
18932;DHT22;9598;50.954;3.112;2023-12-20T13:25:00;10.30;99.90
18932;DHT22;9598;50.954;3.112;2023-12-20T13:30:06;10.30;99.90
18932;DHT22;9598;50.954;3.112;2023-12-20T13:35:09;10.30;99.90
18932;DHT22;9598;50.954;3.112;2023-12-20T13:40:11;10.30;99.90
18932;DHT22;9598;50.954;3.112;2023-12-20T13:45:15;10.30;99.90
18932;DHT22;9598;50.954;3.112;2023-12-20T13:50:17;10.30;99.90
18932;DHT22;9598;50.954;3.112;2023-12-20T13:55:19;10.20;99.90
18932;DHT22;9598;50.954;3.112;2023-12-20T14:00:27;10.20;99.90
18932;DHT22;9598;50.954;3.112;2023-12-20T14:05:29;10.30;99.90
18932;DHT22;9598;50.954;3.112;2023-12-20T14:10:31;10.30;99.90
18932;DHT22;9598;50.954;3.112;2023-12-20T14:15:34;10.30;99.90
18932;DHT22;9598;50.954;3.112;2023-12-20T14:20:37;10.30;99.90
18932;DHT22;9598;50.954;3.112;2023-12-20T14:25:41;10.30;99.90
18932;DHT22;9598;50.954;3.112;2023-12-20T14:30:44;10.30;99.90
18932;DHT22;9598;50.954;3.112;2023-12-20T14:35:46;10.30;99.90
18932;DHT22;9598;50.954;3.112;2023-12-20T14:40:49;10.40;99.90
18932;DHT22;9598;50.954;3.112;2023-12-20T14:45:53;10.40;99.90
18932;DHT22;9598;50.954;3.112;2023-12-20T14:50:55;10.40;99.90
18932;DHT22;9598;50.954;3.112;2023-12-20T14:55:57;10.40;99.90
18932;DHT22;9598;50.954;3.112;2023-12-20T15:01:01;10.40;99.90
18932;DHT22;9598;50.954;3.112;2023-12-20T15:06:04;10.40;99.90
18932;DHT22;9598;50.954;3.112;2023-12-20T15:11:07;10.40;99.90
18932;DHT22;9598;50.954;3.112;2023-12-20T15:16:10;10.40;99.90
18932;DHT22;9598;50.954;3.112;2023-12-20T15:21:12;10.40;99.90
18932;DHT22;9598;50.954;3.112;2023-12-20T15:26:15;10.30;99.90
18932;DHT22;9598;50.954;3.112;2023-12-20T15:31:18;10.30;99.90
18932;DHT22;9598;50.954;3.112;2023-12-20T15:36:27;10.30;99.90
18932;DHT22;9598;50.954;3.112;2023-12-20T15:41:29;10.30;99.90
18932;DHT22;9598;50.954;3.112;2023-12-20T15:46:32;10.30;99.90
18932;DHT22;9598;50.954;3.112;2023-12-20T15:51:34;10.30;99.90
18932;DHT22;9598;50.954;3.112;2023-12-20T15:56:37;10.30;99.90
18932;DHT22;9598;50.954;3.112;2023-12-20T16:01:43;10.30;99.90
18932;DHT22;9598;50.954;3.112;2023-12-20T16:06:45;10.30;99.90
18932;DHT22;9598;50.954;3.112;2023-12-20T16:11:47;10.30;99.90
18932;DHT22;9598;50.954;3.112;2023-12-20T16:16:51;10.30;99.90
18932;DHT22;9598;50.954;3.112;2023-12-20T16:21:53;10.30;99.90
18932;DHT22;9598;50.954;3.112;2023-12-20T16:26:55;10.30;99.90
18932;DHT22;9598;50.954;3.112;2023-12-20T16:32:00;10.30;99.90
18932;DHT22;9598;50.954;3.112;2023-12-20T16:37:02;10.30;99.90
18932;DHT22;9598;50.954;3.112;2023-12-20T16:42:05;10.20;99.90
18932;DHT22;9598;50.954;3.112;2023-12-20T16:47:09;10.20;99.90
18932;DHT22;9598;50.954;3.112;2023-12-20T16:52:11;10.20;99.90
18932;DHT22;9598;50.954;3.112;2023-12-20T16:57:14;10.20;99.90
18932;DHT22;9598;50.954;3.112;2023-12-20T17:02:20;10.20;99.90
18932;DHT22;9598;50.954;3.112;2023-12-20T17:07:22;10.20;99.90
18932;DHT22;9598;50.954;3.112;2023-12-20T17:12:24;10.20;99.90
18932;DHT22;9598;50.954;3.112;2023-12-20T17:17:28;10.10;99.90
18932;DHT22;9598;50.954;3.112;2023-12-20T17:22:30;10.20;99.90
18932;DHT22;9598;50.954;3.112;2023-12-20T17:27:32;10.20;99.90
18932;DHT22;9598;50.954;3.112;2023-12-20T17:32:35;10.20;99.90
18932;DHT22;9598;50.954;3.112;2023-12-20T17:37:38;10.20;99.90
18932;DHT22;9598;50.954;3.112;2023-12-20T17:42:40;10.20;99.90
18932;DHT22;9598;50.954;3.112;2023-12-20T17:47:43;10.20;99.90
18932;DHT22;9598;50.954;3.112;2023-12-20T17:52:45;10.30;99.90
18932;DHT22;9598;50.954;3.112;2023-12-20T17:57:48;10.20;99.90
18932;DHT22;9598;50.954;3.112;2023-12-20T18:02:51;10.20;99.90
18932;DHT22;9598;50.954;3.112;2023-12-20T18:07:55;10.30;99.90
18932;DHT22;9598;50.954;3.112;2023-12-20T18:12:57;10.30;99.90
18932;DHT22;9598;50.954;3.112;2023-12-20T18:18:00;10.30;99.90
18932;DHT22;9598;50.954;3.112;2023-12-20T18:23:02;10.30;99.90
18932;DHT22;9598;50.954;3.112;2023-12-20T18:28:05;10.30;99.90
18932;DHT22;9598;50.954;3.112;2023-12-20T18:33:08;10.30;99.90
18932;DHT22;9598;50.954;3.112;2023-12-20T18:38:11;10.30;99.90
18932;DHT22;9598;50.954;3.112;2023-12-20T18:43:13;10.30;99.90
18932;DHT22;9598;50.954;3.112;2023-12-20T18:48:17;10.40;99.90
18932;DHT22;9598;50.954;3.112;2023-12-20T18:53:19;10.40;99.90
18932;DHT22;9598;50.954;3.112;2023-12-20T18:58:21;10.40;99.90
18932;DHT22;9598;50.954;3.112;2023-12-20T19:03:29;10.50;99.90
18932;DHT22;9598;50.954;3.112;2023-12-20T19:08:32;10.50;99.90
18932;DHT22;9598;50.954;3.112;2023-12-20T19:13:34;10.50;99.90
18932;DHT22;9598;50.954;3.112;2023-12-20T19:18:37;10.60;99.90
18932;DHT22;9598;50.954;3.112;2023-12-20T19:23:39;10.60;99.90
18932;DHT22;9598;50.954;3.112;2023-12-20T19:28:43;10.60;99.90
18932;DHT22;9598;50.954;3.112;2023-12-20T19:33:47;10.60;99.90
18932;DHT22;9598;50.954;3.112;2023-12-20T19:38:53;10.70;99.90
18932;DHT22;9598;50.954;3.112;2023-12-20T19:43:55;10.70;99.90
18932;DHT22;9598;50.954;3.112;2023-12-20T19:49:00;10.70;99.90
18932;DHT22;9598;50.954;3.112;2023-12-20T19:54:05;10.70;99.90
18932;DHT22;9598;50.954;3.112;2023-12-20T19:59:07;10.70;99.90
18932;DHT22;9598;50.954;3.112;2023-12-20T20:04:10;10.70;99.90
18932;DHT22;9598;50.954;3.112;2023-12-20T20:09:13;10.70;99.90
18932;DHT22;9598;50.954;3.112;2023-12-20T20:14:15;10.70;99.90
18932;DHT22;9598;50.954;3.112;2023-12-20T20:19:18;10.70;99.90
18932;DHT22;9598;50.954;3.112;2023-12-20T20:24:20;10.70;99.90
18932;DHT22;9598;50.954;3.112;2023-12-20T20:29:24;10.70;99.90
18932;DHT22;9598;50.954;3.112;2023-12-20T20:34:27;10.80;99.90
18932;DHT22;9598;50.954;3.112;2023-12-20T20:39:29;10.70;99.90
18932;DHT22;9598;50.954;3.112;2023-12-20T20:44:31;10.80;99.90
18932;DHT22;9598;50.954;3.112;2023-12-20T20:49:35;10.80;99.90
18932;DHT22;9598;50.954;3.112;2023-12-20T20:54:37;10.80;99.90
18932;DHT22;9598;50.954;3.112;2023-12-20T20:59:39;10.80;99.90
18932;DHT22;9598;50.954;3.112;2023-12-20T21:04:45;10.80;99.90
18932;DHT22;9598;50.954;3.112;2023-12-20T21:09:49;10.80;99.90
18932;DHT22;9598;50.954;3.112;2023-12-20T21:14:51;10.80;99.90
18932;DHT22;9598;50.954;3.112;2023-12-20T21:19:55;10.80;99.90
18932;DHT22;9598;50.954;3.112;2023-12-20T21:24:57;10.80;99.90
18932;DHT22;9598;50.954;3.112;2023-12-20T21:29:59;10.80;99.90
18932;DHT22;9598;50.954;3.112;2023-12-20T21:35:03;10.80;99.90
18932;DHT22;9598;50.954;3.112;2023-12-20T21:40:06;10.80;99.90
18932;DHT22;9598;50.954;3.112;2023-12-20T21:45:10;10.80;99.90
18932;DHT22;9598;50.954;3.112;2023-12-20T21:50:13;10.80;99.90
18932;DHT22;9598;50.954;3.112;2023-12-20T21:55:16;10.80;99.90
18932;DHT22;9598;50.954;3.112;2023-12-20T22:00:18;10.70;99.90
18932;DHT22;9598;50.954;3.112;2023-12-20T22:05:22;10.70;99.90
18932;DHT22;9598;50.954;3.112;2023-12-20T22:10:26;10.70;99.90
18932;DHT22;9598;50.954;3.112;2023-12-20T22:15:28;10.70;99.90
18932;DHT22;9598;50.954;3.112;2023-12-20T22:20:31;10.70;99.90
18932;DHT22;9598;50.954;3.112;2023-12-20T22:25:34;10.70;99.90
18932;DHT22;9598;50.954;3.112;2023-12-20T22:30:36;10.70;99.90
18932;DHT22;9598;50.954;3.112;2023-12-20T22:35:39;10.70;99.90
18932;DHT22;9598;50.954;3.112;2023-12-20T22:40:42;10.70;99.90
18932;DHT22;9598;50.954;3.112;2023-12-20T22:45:44;10.70;99.90
18932;DHT22;9598;50.954;3.112;2023-12-20T22:50:47;10.70;99.90
18932;DHT22;9598;50.954;3.112;2023-12-20T22:55:49;10.80;99.90
18932;DHT22;9598;50.954;3.112;2023-12-20T23:00:51;10.80;99.90
18932;DHT22;9598;50.954;3.112;2023-12-20T23:05:55;10.80;99.90
18932;DHT22;9598;50.954;3.112;2023-12-20T23:10:57;10.80;99.90
18932;DHT22;9598;50.954;3.112;2023-12-20T23:15:59;10.90;99.90
18932;DHT22;9598;50.954;3.112;2023-12-20T23:21:02;10.90;99.90
18932;DHT22;9598;50.954;3.112;2023-12-20T23:26:05;10.90;99.90
18932;DHT22;9598;50.954;3.112;2023-12-20T23:31:07;10.90;99.90
18932;DHT22;9598;50.954;3.112;2023-12-20T23:36:11;11.00;99.90
18932;DHT22;9598;50.954;3.112;2023-12-20T23:41:13;11.00;99.90
18932;DHT22;9598;50.954;3.112;2023-12-20T23:46:15;11.00;99.90
18932;DHT22;9598;50.954;3.112;2023-12-20T23:51:18;11.00;99.90
18932;DHT22;9598;50.954;3.112;2023-12-20T23:56:20;11.00;99.90
